Time;durP1;ratioP1;P1;durP2;ratioP2;P2;SDS_P1;SDS_P2;PMS_P1;PMS_P2;Temp;Humidity;BMP_temperature;BMP_pressure;BME280_temperature;BME280_humidity;BME280_pressure;Samples;Min_cycle;Max_cycle;Signal;HPM_P1;HPM_P2
2023/05/28 00:01:32;;;;;;;9.77;6.43;;;9.90;99.90;;;;;;5072279;28;20500;-68
2023/05/28 00:03:58;;;;;;;11.33;5.97;;;9.90;99.90;;;;;;5073112;28;20253;-67
2023/05/28 00:06:24;;;;;;;8.27;6.67;;;9.90;99.90;;;;;;5072481;28;20409;-71
2023/05/28 00:08:49;;;;;;;7.53;6.40;;;9.90;99.90;;;;;;5091374;28;20857;-67
2023/05/28 00:11:15;;;;;;;11.03;7.20;;;9.90;99.90;;;;;;5096804;28;20822;-71
2023/05/28 00:13:41;;;;;;;8.00;6.50;;;10.00;99.90;;;;;;5096053;28;20196;-68
2023/05/28 00:16:06;;;;;;;11.77;6.57;;;10.00;99.90;;;;;;5097247;28;20238;-71
2023/05/28 00:18:32;;;;;;;6.87;6.17;;;10.00;99.90;;;;;;5097514;28;20539;-71
2023/05/28 00:20:58;;;;;;;10.97;6.70;;;10.00;99.90;;;;;;5095221;28;20165;-71
2023/05/28 00:23:24;;;;;;;9.43;8.00;;;10.00;99.90;;;;;;5097217;28;20177;-68
2023/05/28 00:25:50;;;;;;;6.90;5.40;;;10.00;99.90;;;;;;5076152;28;20413;-67
2023/05/28 00:28:15;;;;;;;9.80;5.73;;;9.90;99.90;;;;;;5077095;28;20192;-71
2023/05/28 00:30:41;;;;;;;8.63;6.53;;;9.80;99.90;;;;;;5076391;28;20649;-68
2023/05/28 00:33:07;;;;;;;8.83;6.10;;;9.80;99.90;;;;;;5076546;28;20197;-71
2023/05/28 00:35:32;;;;;;;7.93;5.60;;;9.80;99.90;;;;;;5076984;28;20523;-68
2023/05/28 00:37:58;;;;;;;6.20;5.43;;;9.80;99.90;;;;;;5076839;28;20279;-71
2023/05/28 00:40:24;;;;;;;8.10;6.07;;;9.80;99.90;;;;;;5073999;28;20825;-68
2023/05/28 00:42:51;;;;;;;9.30;6.40;;;9.80;99.90;;;;;;5075377;28;20197;-67
2023/05/28 00:45:17;;;;;;;6.80;5.63;;;9.80;99.90;;;;;;5076790;28;20185;-65
2023/05/28 00:47:43;;;;;;;9.33;5.87;;;9.70;99.90;;;;;;5076661;28;20409;-69
2023/05/28 00:50:10;;;;;;;5.80;5.20;;;9.60;99.90;;;;;;5075699;28;20374;-68
2023/05/28 00:52:36;;;;;;;8.90;5.90;;;9.60;99.90;;;;;;5076049;28;20907;-68
2023/05/28 00:55:04;;;;;;;7.43;5.63;;;9.40;99.90;;;;;;5076573;28;20390;-65
2023/05/28 00:57:30;;;;;;;10.33;5.87;;;9.30;99.90;;;;;;5075470;28;20610;-68
2023/05/28 01:00:04;;;;;;;9.53;6.53;;;9.30;99.90;;;;;;5076037;28;20374;-69
2023/05/28 01:02:29;;;;;;;7.63;5.53;;;9.30;99.90;;;;;;5076068;28;20379;-65
2023/05/28 01:04:55;;;;;;;9.27;5.63;;;9.30;99.90;;;;;;5076433;28;20432;-65
2023/05/28 01:07:21;;;;;;;9.73;6.30;;;9.30;99.90;;;;;;5076251;28;20177;-68
2023/05/28 01:09:47;;;;;;;8.63;5.90;;;9.30;99.90;;;;;;5076081;28;20534;-71
2023/05/28 01:12:13;;;;;;;11.70;6.47;;;9.30;99.90;;;;;;5075006;28;20379;-71
2023/05/28 01:14:39;;;;;;;9.93;5.00;;;9.20;99.90;;;;;;5075404;28;20440;-65
2023/05/28 01:17:06;;;;;;;12.00;5.90;;;9.10;99.90;;;;;;5076239;28;20805;-69
2023/05/28 01:19:31;;;;;;;11.13;6.37;;;9.10;99.90;;;;;;5075962;28;20416;-65
2023/05/28 01:22:04;;;;;;;12.17;6.23;;;9.10;99.90;;;;;;5073720;28;20385;-68
2023/05/28 01:24:35;;;;;;;10.07;6.33;;;9.10;99.90;;;;;;5075777;28;20251;-69
2023/05/28 01:27:02;;;;;;;6.87;6.13;;;9.10;99.90;;;;;;5075547;28;20392;-71
2023/05/28 01:29:28;;;;;;;5.83;5.33;;;9.10;99.90;;;;;;5075243;28;20424;-69
2023/05/28 01:31:55;;;;;;;6.93;6.20;;;9.10;99.90;;;;;;5073845;28;20503;-69
2023/05/28 01:34:22;;;;;;;11.83;6.47;;;9.00;99.90;;;;;;5075756;28;20812;-65
2023/05/28 01:36:57;;;;;;;9.60;6.60;;;9.00;99.90;;;;;;5075809;28;20298;-69
2023/05/28 01:39:26;;;;;;;6.90;6.00;;;9.00;1.00;;;;;;5075899;28;20375;-69
2023/05/28 01:41:52;;;;;;;12.73;6.10;;;8.90;99.90;;;;;;5073539;28;20876;-65
2023/05/28 01:44:19;;;;;;;8.33;6.90;;;8.80;1.00;;;;;;5074132;28;20470;-68
2023/05/28 01:46:49;;;;;;;8.63;6.60;;;8.80;1.00;;;;;;5075588;28;20713;-65
2023/05/28 01:49:15;;;;;;;8.97;7.10;;;8.80;1.00;;;;;;5075570;28;20383;-69
2023/05/28 01:51:41;;;;;;;7.77;5.73;;;8.90;1.00;;;;;;5074593;28;20370;-66
2023/05/28 01:54:06;;;;;;;7.00;6.30;;;8.90;1.00;;;;;;5075409;28;20828;-65
2023/05/28 01:56:32;;;;;;;6.73;5.93;;;8.90;1.00;;;;;;5074998;28;20653;-66
2023/05/28 01:58:58;;;;;;;10.60;6.80;;;8.80;1.00;;;;;;5075459;28;20248;-68
2023/05/28 02:01:32;;;;;;;8.10;6.00;;;8.80;1.00;;;;;;5072569;28;20193;-69
2023/05/28 02:03:59;;;;;;;8.30;6.20;;;8.80;1.00;;;;;;5074760;28;20188;-68
2023/05/28 02:06:29;;;;;;;8.80;6.83;;;8.90;1.00;;;;;;5074968;28;20447;-66
2023/05/28 02:08:55;;;;;;;9.57;5.93;;;8.90;1.00;;;;;;5074095;28;20388;-68
2023/05/28 02:11:21;;;;;;;9.40;6.67;;;8.90;1.00;;;;;;5072904;28;20891;-69
2023/05/28 02:13:48;;;;;;;8.90;6.10;;;8.80;1.00;;;;;;5073661;28;20344;-65
2023/05/28 02:16:17;;;;;;;8.47;6.67;;;8.80;1.00;;;;;;5074940;28;20468;-70
2023/05/28 02:18:44;;;;;;;10.10;6.70;;;8.90;1.00;;;;;;5074918;28;20436;-71
2023/05/28 02:21:10;;;;;;;11.30;6.57;;;9.00;1.00;;;;;;5072980;28;20411;-68
2023/05/28 02:23:39;;;;;;;12.40;6.57;;;9.00;1.00;;;;;;5074429;28;20918;-68
2023/05/28 02:26:05;;;;;;;11.23;6.40;;;9.00;1.00;;;;;;5074898;28;20461;-71
2023/05/28 02:28:30;;;;;;;10.63;7.77;;;8.90;1.00;;;;;;5074805;28;20534;-72
2023/05/28 02:30:56;;;;;;;6.80;6.20;;;8.90;1.00;;;;;;5072796;28;20626;-65
2023/05/28 02:33:22;;;;;;;11.50;6.50;;;9.10;1.00;;;;;;5072978;28;20668;-71
2023/05/28 02:35:47;;;;;;;9.33;6.70;;;9.10;1.00;;;;;;5074760;28;20166;-68
2023/05/28 02:38:13;;;;;;;10.17;6.90;;;9.20;1.00;;;;;;5073623;28;20209;-67
2023/05/28 02:40:39;;;;;;;11.60;8.27;;;9.30;1.00;;;;;;5073447;28;20254;-67
2023/05/28 02:43:04;;;;;;;9.23;6.83;;;9.30;1.00;;;;;;5074170;28;20190;-68
2023/05/28 02:45:30;;;;;;;7.83;6.97;;;9.30;1.00;;;;;;5073150;28;20587;-67
2023/05/28 02:47:56;;;;;;;7.87;7.07;;;9.40;1.00;;;;;;5073406;28;20255;-72
2023/05/28 02:50:21;;;;;;;12.03;8.03;;;9.40;1.00;;;;;;5073461;28;20178;-72
2023/05/28 02:52:47;;;;;;;11.40;6.83;;;9.40;1.00;;;;;;5073307;28;20240;-68
2023/05/28 02:55:12;;;;;;;9.37;6.77;;;9.50;1.00;;;;;;5074552;28;20255;-67
2023/05/28 02:57:38;;;;;;;12.17;7.60;;;9.50;1.00;;;;;;5073852;28;20194;-71
2023/05/28 03:00:04;;;;;;;9.80;7.30;;;9.40;1.00;;;;;;5073474;28;20241;-74
2023/05/28 03:02:30;;;;;;;9.77;7.77;;;9.40;1.00;;;;;;5072587;28;20178;-70
2023/05/28 03:04:56;;;;;;;7.97;6.73;;;9.40;1.00;;;;;;5073986;28;20819;-68
2023/05/28 03:07:22;;;;;;;8.20;6.77;;;9.50;1.00;;;;;;5074183;28;20626;-68
2023/05/28 03:09:48;;;;;;;9.07;6.60;;;9.50;1.00;;;;;;5073096;28;20445;-73
2023/05/28 03:12:13;;;;;;;24.87;12.23;;;9.50;1.00;;;;;;5072069;28;20504;-72
2023/05/28 03:14:39;;;;;;;25.10;13.40;;;9.50;1.00;;;;;;5073519;28;20178;-72
2023/05/28 03:17:05;;;;;;;11.47;8.60;;;9.60;1.00;;;;;;5073587;28;20197;-71
2023/05/28 03:19:31;;;;;;;9.33;8.33;;;9.60;1.00;;;;;;5073998;28;20171;-68
2023/05/28 03:21:57;;;;;;;8.40;7.00;;;9.70;1.00;;;;;;5071585;28;20667;-67
2023/05/28 03:24:23;;;;;;;10.57;6.47;;;9.80;1.00;;;;;;5073799;28;20422;-72
2023/05/28 03:26:48;;;;;;;11.00;7.43;;;9.60;1.00;;;;;;5072531;28;20631;-73
2023/05/28 03:29:14;;;;;;;7.97;6.73;;;9.50;1.00;;;;;;5072791;28;20174;-71
2023/05/28 03:31:47;;;;;;;15.63;8.30;;;9.40;1.00;;;;;;5071625;28;20627;-73
2023/05/28 03:34:12;;;;;;;8.77;6.83;;;9.40;1.00;;;;;;5073325;28;20204;-69
2023/05/28 03:36:40;;;;;;;9.07;7.20;;;9.40;1.00;;;;;;5073639;28;20367;-68
2023/05/28 03:39:09;;;;;;;9.80;7.13;;;9.30;1.00;;;;;;5073614;28;20527;-67
2023/05/28 03:41:36;;;;;;;10.23;6.90;;;9.40;1.00;;;;;;5072676;28;20379;-67
2023/05/28 03:44:03;;;;;;;8.60;6.80;;;9.50;1.00;;;;;;5071489;28;20506;-73
2023/05/28 03:46:28;;;;;;;13.73;7.70;;;9.60;1.00;;;;;;5089115;28;20423;-68
2023/05/28 03:48:54;;;;;;;13.73;7.53;;;9.70;1.00;;;;;;5073196;28;20387;-69
2023/05/28 03:51:21;;;;;;;10.00;8.17;;;9.90;1.00;;;;;;5072334;28;20249;-68
2023/05/28 03:53:47;;;;;;;12.60;7.13;;;9.90;1.00;;;;;;5073457;28;20193;-68
2023/05/28 03:56:13;;;;;;;9.80;7.40;;;10.00;1.00;;;;;;5073441;28;20740;-72
2023/05/28 03:58:38;;;;;;;10.10;7.30;;;10.00;1.00;;;;;;5072278;28;20190;-68
2023/05/28 04:01:04;;;;;;;7.80;6.97;;;10.10;1.00;;;;;;5072467;28;20166;-72
2023/05/28 04:03:33;;;;;;;11.73;7.37;;;10.10;1.00;;;;;;5073160;28;20248;-71
2023/05/28 04:06:00;;;;;;;10.33;6.97;;;10.20;1.00;;;;;;5073259;28;20163;-68
2023/05/28 04:08:26;;;;;;;7.43;6.60;;;10.20;1.00;;;;;;5073033;28;20395;-72
2023/05/28 04:10:52;;;;;;;8.80;6.70;;;10.30;1.00;;;;;;5072302;28;20863;-73
2023/05/28 04:13:18;;;;;;;10.00;7.60;;;10.40;1.00;;;;;;5072951;28;20190;-73
2023/05/28 04:15:43;;;;;;;10.87;7.23;;;10.40;1.00;;;;;;5072105;28;20181;-68
2023/05/28 04:18:09;;;;;;;8.47;6.50;;;10.30;1.00;;;;;;5073210;28;20812;-68
2023/05/28 04:20:38;;;;;;;7.87;6.90;;;10.30;1.00;;;;;;5072315;28;20177;-73
2023/05/28 04:23:04;;;;;;;11.33;7.07;;;10.40;1.00;;;;;;5073185;28;20190;-72
2023/05/28 04:25:30;;;;;;;7.10;5.83;;;10.40;1.00;;;;;;5072896;28;20399;-67
2023/05/28 04:27:56;;;;;;;9.30;6.90;;;10.50;1.00;;;;;;5072716;28;20421;-68
2023/05/28 04:30:23;;;;;;;8.93;6.93;;;10.50;1.00;;;;;;5071623;28;20167;-68
2023/05/28 04:32:52;;;;;;;7.97;6.50;;;10.60;1.00;;;;;;5072962;28;20910;-72
2023/05/28 04:35:18;;;;;;;9.07;7.23;;;10.70;1.00;;;;;;5073010;28;20391;-68
2023/05/28 04:37:44;;;;;;;9.50;6.20;;;10.80;1.00;;;;;;5072955;28;20457;-72
2023/05/28 04:40:13;;;;;;;8.10;7.27;;;10.80;1.00;;;;;;5072180;28;20387;-68
2023/05/28 04:42:40;;;;;;;12.33;7.40;;;10.90;1.00;;;;;;5072481;28;20194;-72
2023/05/28 04:45:07;;;;;;;6.43;5.83;;;11.00;1.00;;;;;;5071627;28;20519;-68
2023/05/28 04:47:34;;;;;;;7.47;6.13;;;11.10;1.00;;;;;;5072182;28;20375;-74
2023/05/28 04:50:03;;;;;;;11.67;7.40;;;11.20;1.00;;;;;;5072295;28;20402;-73
2023/05/28 04:52:31;;;;;;;11.43;6.23;;;11.30;1.00;;;;;;5071059;28;20399;-72
2023/05/28 04:54:57;;;;;;;7.63;6.47;;;11.40;1.00;;;;;;5073574;28;20744;-72
2023/05/28 04:57:23;;;;;;;7.30;6.10;;;11.40;1.00;;;;;;5075141;28;20452;-72
2023/05/28 04:59:49;;;;;;;8.00;6.33;;;11.50;1.00;;;;;;5076194;28;20253;-74
2023/05/28 05:02:18;;;;;;;7.97;6.30;;;11.60;1.00;;;;;;5074702;28;20178;-69
2023/05/28 05:04:44;;;;;;;13.00;7.50;;;11.70;1.00;;;;;;5076238;28;20871;-69
2023/05/28 05:07:11;;;;;;;9.93;7.80;;;11.80;1.80;;;;;;5076304;28;20498;-68
2023/05/28 05:09:37;;;;;;;9.17;7.30;;;12.00;3.20;;;;;;5076144;28;20903;-69
2023/05/28 05:12:03;;;;;;;8.97;8.00;;;12.00;1.00;;;;;;5075222;28;20400;-73
2023/05/28 05:14:28;;;;;;;12.50;7.73;;;12.10;1.00;;;;;;5075983;28;20201;-68
2023/05/28 05:16:54;;;;;;;14.53;7.80;;;12.10;1.00;;;;;;5074765;28;20178;-68
2023/05/28 05:19:19;;;;;;;11.83;7.23;;;12.20;1.00;;;;;;5091600;28;20626;-68
2023/05/28 05:21:45;;;;;;;10.77;7.07;;;12.20;1.00;;;;;;5094987;28;20537;-71
2023/05/28 05:24:11;;;;;;;10.00;7.77;;;12.30;1.00;;;;;;5095905;28;20244;-68
2023/05/28 05:26:37;;;;;;;7.30;6.53;;;12.30;1.00;;;;;;5096173;28;20177;-72
2023/05/28 05:29:02;;;;;;;8.30;6.47;;;12.30;1.00;;;;;;5087614;28;20581;-68
2023/05/28 05:31:28;;;;;;;12.53;7.47;;;12.30;1.00;;;;;;5075114;28;20166;-72
2023/05/28 05:33:54;;;;;;;12.90;7.07;;;12.40;1.00;;;;;;5074513;28;20670;-71
2023/05/28 05:36:20;;;;;;;13.20;7.03;;;12.50;1.00;;;;;;5075826;28;20174;-72
2023/05/28 05:38:46;;;;;;;11.43;8.40;;;12.50;1.00;;;;;;5075639;28;20197;-71
2023/05/28 05:41:12;;;;;;;10.53;6.27;;;12.60;1.00;;;;;;5074425;28;20372;-71
2023/05/28 05:43:37;;;;;;;10.30;7.10;;;12.60;1.00;;;;;;5074698;28;20324;-71
2023/05/28 05:46:03;;;;;;;6.63;6.00;;;12.60;1.00;;;;;;5089394;28;20558;-73
2023/05/28 05:48:29;;;;;;;11.30;7.07;;;12.70;1.00;;;;;;5095791;28;20256;-68
2023/05/28 05:50:55;;;;;;;13.20;6.70;;;12.70;1.00;;;;;;5094941;28;20170;-68
2023/05/28 05:53:21;;;;;;;15.90;6.57;;;12.70;1.00;;;;;;5095682;28;20615;-70
2023/05/28 05:55:47;;;;;;;14.23;7.40;;;12.70;1.00;;;;;;5095685;28;20187;-69
2023/05/28 05:58:14;;;;;;;10.20;6.43;;;12.70;1.00;;;;;;5095492;28;20939;-69
2023/05/28 06:00:40;;;;;;;8.73;7.10;;;12.60;1.00;;;;;;5084177;28;20439;-72
2023/05/28 06:03:06;;;;;;;11.70;5.63;;;12.60;1.00;;;;;;5075325;28;20413;-68
2023/05/28 06:05:35;;;;;;;15.13;7.23;;;12.50;1.00;;;;;;5075245;28;20401;-72
2023/05/28 06:08:05;;;;;;;5.97;4.80;;;12.50;1.00;;;;;;5072872;28;20837;-71
2023/05/28 06:10:30;;;;;;;8.10;4.47;;;12.40;1.00;;;;;;5074149;28;20429;-68
2023/05/28 06:12:56;;;;;;;12.00;4.93;;;12.30;1.00;;;;;;5075001;28;20553;-71
2023/05/28 06:15:24;;;;;;;6.27;4.40;;;12.20;1.00;;;;;;5073903;28;20643;-68
2023/05/28 06:17:51;;;;;;;8.40;5.30;;;12.20;1.00;;;;;;5072386;28;20202;-71
2023/05/28 06:20:19;;;;;;;8.80;4.07;;;12.30;1.00;;;;;;5073955;28;20876;-71
2023/05/28 06:22:45;;;;;;;4.20;3.57;;;12.40;1.00;;;;;;5074791;28;20407;-71
2023/05/28 06:25:11;;;;;;;5.23;4.10;;;12.50;1.00;;;;;;5074879;28;20406;-72
2023/05/28 06:27:37;;;;;;;8.13;4.40;;;12.60;1.00;;;;;;5074870;28;20449;-68
2023/05/28 06:30:04;;;;;;;4.90;3.90;;;12.60;1.00;;;;;;5073276;28;20486;-74
2023/05/28 06:32:31;;;;;;;3.60;3.20;;;12.60;1.00;;;;;;5074689;28;20417;-69
2023/05/28 06:34:57;;;;;;;4.67;3.23;;;12.60;1.00;;;;;;5089062;28;20443;-69
2023/05/28 06:37:22;;;;;;;5.27;3.80;;;12.70;1.00;;;;;;5094728;28;20948;-71
2023/05/28 06:39:48;;;;;;;3.87;3.27;;;12.70;1.00;;;;;;5094749;28;20835;-70
2023/05/28 06:42:14;;;;;;;5.30;3.10;;;12.80;1.00;;;;;;5093918;28;20692;-69
2023/05/28 06:44:40;;;;;;;3.73;3.43;;;12.90;1.00;;;;;;5094725;28;20170;-69
2023/05/28 06:47:05;;;;;;;5.20;3.20;;;13.00;1.00;;;;;;5094667;28;20223;-69
2023/05/28 06:49:31;;;;;;;4.83;3.20;;;13.20;1.00;;;;;;5094692;28;20228;-72
2023/05/28 06:51:57;;;;;;;4.97;3.13;;;13.30;1.00;;;;;;5074333;28;20403;-71
2023/05/28 06:54:23;;;;;;;3.67;3.37;;;13.40;99.90;;;;;;5074213;28;20194;-69
2023/05/28 06:56:49;;;;;;;8.00;3.30;;;13.40;99.90;;;;;;5074113;28;20729;-71
2023/05/28 06:59:15;;;;;;;3.50;3.20;;;13.50;99.90;;;;;;5074168;28;20166;-69
2023/05/28 07:01:41;;;;;;;2.70;2.40;;;13.60;99.90;;;;;;5071743;28;20440;-68
2023/05/28 07:04:06;;;;;;;4.20;3.60;;;13.70;99.90;;;;;;5072928;28;20411;-71
2023/05/28 07:06:33;;;;;;;3.33;3.03;;;13.80;99.90;;;;;;5073005;28;20170;-71
2023/05/28 07:08:59;;;;;;;4.23;3.50;;;14.00;99.90;;;;;;5073582;28;20168;-69
2023/05/28 07:11:29;;;;;;;3.43;3.13;;;14.10;99.90;;;;;;5072951;28;20408;-71
2023/05/28 07:13:55;;;;;;;2.97;2.77;;;14.30;99.90;;;;;;5072592;28;20809;-68
2023/05/28 07:16:21;;;;;;;4.20;2.90;;;14.30;99.90;;;;;;5073910;28;20391;-68
2023/05/28 07:18:47;;;;;;;10.90;4.33;;;14.30;99.90;;;;;;5072640;28;20562;-69
2023/05/28 07:21:13;;;;;;;3.57;3.03;;;14.40;99.90;;;;;;5071914;28;20409;-71
2023/05/28 07:23:39;;;;;;;4.37;3.07;;;14.50;99.90;;;;;;5072317;28;20465;-71
2023/05/28 07:26:05;;;;;;;7.33;2.80;;;14.50;99.90;;;;;;5073844;28;20397;-71
2023/05/28 07:28:31;;;;;;;8.07;3.57;;;14.70;99.90;;;;;;5073474;28;20913;-69
2023/05/28 07:30:57;;;;;;;5.43;3.53;;;14.80;99.90;;;;;;5072562;28;20420;-70
2023/05/28 07:33:23;;;;;;;4.30;3.23;;;14.90;99.90;;;;;;5073703;28;20785;-70
2023/05/28 07:35:49;;;;;;;4.60;3.30;;;15.00;99.90;;;;;;5073003;28;20418;-72
2023/05/28 07:38:15;;;;;;;3.20;2.90;;;15.10;99.90;;;;;;5072248;28;20452;-69
2023/05/28 07:40:41;;;;;;;4.27;2.87;;;15.10;99.90;;;;;;5072725;28;20666;-71
2023/05/28 07:43:07;;;;;;;3.57;3.10;;;15.20;99.90;;;;;;5073311;28;20520;-69
2023/05/28 07:45:33;;;;;;;5.60;3.30;;;15.40;99.90;;;;;;5073548;28;20479;-68
2023/05/28 07:48:00;;;;;;;6.80;3.30;;;15.50;99.90;;;;;;5073088;28;20177;-69
2023/05/28 07:50:49;;;;;;;8.67;3.43;;;15.60;99.90;;;;;;5072521;28;20423;-69
2023/05/28 07:53:18;;;;;;;13.70;3.70;;;15.70;99.90;;;;;;5072486;28;20455;-71
2023/05/28 07:55:46;;;;;;;6.63;3.40;;;15.90;99.90;;;;;;5073604;28;20844;-68
2023/05/28 07:58:12;;;;;;;5.20;3.13;;;16.00;99.90;;;;;;5073314;28;20452;-71
2023/05/28 08:00:39;;;;;;;5.43;3.27;;;16.10;99.90;;;;;;5072438;28;20396;-71
2023/05/28 08:03:05;;;;;;;7.20;4.00;;;16.10;99.90;;;;;;5073204;28;20189;-70
2023/05/28 08:05:31;;;;;;;5.47;3.30;;;16.30;99.90;;;;;;5073037;28;20400;-71
2023/05/28 08:07:57;;;;;;;5.70;3.23;;;16.40;99.90;;;;;;5073342;28;20409;-72
2023/05/28 08:10:23;;;;;;;5.30;3.30;;;16.40;99.90;;;;;;5071557;28;20192;-69
2023/05/28 08:12:49;;;;;;;3.40;3.10;;;16.50;99.90;;;;;;5072947;28;20431;-70
2023/05/28 08:15:15;;;;;;;7.33;4.13;;;16.60;99.90;;;;;;5073064;28;20415;-72
2023/05/28 08:17:41;;;;;;;6.47;3.70;;;16.70;99.90;;;;;;5073431;28;20225;-71
2023/05/28 08:20:09;;;;;;;6.30;3.50;;;16.80;99.90;;;;;;5072349;28;20432;-70
2023/05/28 08:22:36;;;;;;;7.60;4.33;;;16.90;99.90;;;;;;5071323;28;20585;-71
2023/05/28 08:25:02;;;;;;;5.63;3.50;;;17.00;99.90;;;;;;5073048;28;20961;-70
2023/05/28 08:27:28;;;;;;;4.90;4.00;;;17.10;99.90;;;;;;5072107;28;20501;-72
2023/05/28 08:29:54;;;;;;;5.83;3.70;;;17.10;99.90;;;;;;5072257;28;20421;-70
2023/05/28 08:32:20;;;;;;;6.80;3.27;;;17.10;99.90;;;;;;5076393;28;20412;-71
2023/05/28 08:34:46;;;;;;;6.50;3.73;;;17.10;99.90;;;;;;5075600;28;20429;-69
2023/05/28 08:37:13;;;;;;;5.90;4.10;;;17.20;99.90;;;;;;5076753;28;20190;-69
2023/05/28 08:39:39;;;;;;;4.70;3.57;;;17.20;99.90;;;;;;5076460;28;20400;-69
2023/05/28 08:42:06;;;;;;;5.70;3.67;;;17.40;99.90;;;;;;5075721;28;20411;-71
2023/05/28 08:44:32;;;;;;;8.67;4.13;;;17.60;99.90;;;;;;5076636;28;20449;-71
2023/05/28 08:47:00;;;;;;;5.10;4.17;;;17.70;99.90;;;;;;5075890;28;20435;-69
2023/05/28 08:49:35;;;;;;;3.53;3.23;;;17.80;99.90;;;;;;5076663;28;20392;-70
2023/05/28 08:52:02;;;;;;;5.87;4.07;;;18.00;99.90;;;;;;5075797;28;20400;-72
2023/05/28 08:54:29;;;;;;;5.10;3.60;;;18.20;99.90;;;;;;5076386;28;20417;-71
2023/05/28 08:56:56;;;;;;;4.07;3.53;;;18.50;99.90;;;;;;5076237;28;20407;-72
2023/05/28 08:59:23;;;;;;;4.87;3.30;;;18.60;99.90;;;;;;5076256;28;20870;-70
2023/05/28 09:01:50;;;;;;;3.63;3.33;;;18.80;99.90;;;;;;5073981;28;20519;-70
2023/05/28 09:04:16;;;;;;;5.87;3.73;;;18.90;99.90;;;;;;5076375;28;20416;-70
2023/05/28 09:06:41;;;;;;;4.30;3.63;;;18.90;99.90;;;;;;5076493;28;20823;-71
2023/05/28 09:09:07;;;;;;;3.70;3.33;;;19.00;99.90;;;;;;5076295;28;20249;-69
2023/05/28 09:11:34;;;;;;;5.10;4.20;;;19.00;99.90;;;;;;5075387;28;20619;-71
2023/05/28 09:14:11;;;;;;;5.63;4.60;;;19.00;99.90;;;;;;5076105;28;20256;-71
2023/05/28 09:16:43;;;;;;;6.17;4.30;;;19.00;99.90;;;;;;5075330;28;20446;-69
2023/05/28 09:19:10;;;;;;;4.07;3.53;;;19.10;99.90;;;;;;5075701;28;20463;-69
2023/05/28 09:21:37;;;;;;;6.97;4.33;;;19.20;99.90;;;;;;5075074;28;20401;-70
2023/05/28 09:24:05;;;;;;;4.77;4.20;;;19.30;99.90;;;;;;5074563;28;20472;-71
2023/05/28 09:26:31;;;;;;;5.50;3.83;;;19.50;99.90;;;;;;5075090;28;20569;-70
2023/05/28 09:28:57;;;;;;;5.23;3.60;;;19.40;99.90;;;;;;5076037;28;20396;-70
2023/05/28 09:31:34;;;;;;;4.77;4.27;;;19.20;99.90;;;;;;5075120;28;20932;-71
2023/05/28 09:34:03;;;;;;;4.13;2.73;;;19.30;99.90;;;;;;5075701;28;20428;-72
2023/05/28 09:36:36;;;;;;;3.33;2.73;;;19.40;99.90;;;;;;5075560;28;20404;-71
2023/05/28 09:39:09;;;;;;;3.17;2.90;;;19.50;99.90;;;;;;5076031;28;20483;-70
2023/05/28 09:41:36;;;;;;;3.17;2.60;;;19.60;99.90;;;;;;5090905;28;20420;-72
2023/05/28 09:44:04;;;;;;;2.87;2.60;;;19.80;99.90;;;;;;5095915;28;20435;-71
2023/05/28 09:46:34;;;;;;;4.77;3.00;;;20.20;99.90;;;;;;5095803;28;20410;-71
2023/05/28 09:49:02;;;;;;;4.70;3.03;;;20.40;99.90;;;;;;5095913;28;20399;-72
2023/05/28 09:51:30;;;;;;;4.30;3.30;;;20.80;99.90;;;;;;5095041;28;20752;-72
2023/05/28 09:54:01;;;;;;;4.77;2.90;;;21.30;99.90;;;;;;5095523;28;20415;-72
2023/05/28 09:56:31;;;;;;;5.73;2.30;;;21.60;99.90;;;;;;5095385;28;20392;-72
2023/05/28 09:59:34;;;;;;;2.97;2.30;;;21.50;99.90;;;;;;5083587;28;20459;-72
2023/05/28 10:02:11;;;;;;;6.20;3.30;;;21.40;99.90;;;;;;5074356;28;20404;-72
2023/05/28 10:04:38;;;;;;;4.93;2.93;;;21.30;99.90;;;;;;5075310;28;20407;-72
2023/05/28 10:07:05;;;;;;;6.50;2.70;;;21.30;99.90;;;;;;5075242;28;20754;-71
2023/05/28 10:09:33;;;;;;;3.50;3.07;;;21.30;99.90;;;;;;5075220;28;20458;-72
2023/05/28 10:12:16;;;;;;;5.07;3.47;;;21.40;99.90;;;;;;5089726;28;20761;-73
2023/05/28 10:14:43;;;;;;;4.37;3.20;;;21.70;99.90;;;;;;5074127;28;20507;-72
2023/05/28 10:17:10;;;;;;;6.33;3.40;;;21.80;99.90;;;;;;5073686;28;20613;-72
2023/05/28 10:19:37;;;;;;;3.77;2.93;;;21.70;99.90;;;;;;5075043;28;20415;-72
2023/05/28 10:22:03;;;;;;;4.87;2.90;;;21.50;99.90;;;;;;5074039;28;20416;-74
2023/05/28 10:24:30;;;;;;;6.10;3.30;;;21.30;99.90;;;;;;5073565;28;20448;-72
2023/05/28 10:26:56;;;;;;;5.10;3.27;;;21.20;99.90;;;;;;5074869;28;20564;-72
2023/05/28 10:29:22;;;;;;;8.30;3.13;;;21.30;99.90;;;;;;5074127;28;20563;-73
2023/05/28 10:32:02;;;;;;;12.00;3.67;;;21.80;99.90;;;;;;5074080;28;20204;-72
2023/05/28 10:34:34;;;;;;;6.90;2.90;;;22.30;99.90;;;;;;5072861;28;20643;-73
2023/05/28 10:37:06;;;;;;;9.87;4.30;;;22.60;99.90;;;;;;5073574;28;20400;-72
2023/05/28 10:39:47;;;;;;;5.60;3.40;;;22.40;99.90;;;;;;5074756;28;20400;-72
2023/05/28 10:42:18;;;;;;;11.27;4.47;;;22.30;99.90;;;;;;5073818;28;20893;-73
2023/05/28 10:45:02;;;;;;;5.63;3.27;;;21.90;99.90;;;;;;5073327;28;20412;-72
2023/05/28 10:47:54;;;;;;;6.83;4.03;;;22.00;99.90;;;;;;5073443;28;20432;-72
2023/05/28 10:50:20;;;;;;;8.70;3.57;;;21.90;99.90;;;;;;5069494;28;20421;-73
2023/05/28 10:53:10;;;;;;;9.33;4.20;;;22.10;99.90;;;;;;5073916;28;20420;-73
2023/05/28 10:55:51;;;;;;;4.23;2.97;;;22.30;99.90;;;;;;5074452;28;20404;-73
2023/05/28 10:58:38;;;;;;;8.50;4.20;;;22.40;99.90;;;;;;5074177;28;20454;-75
2023/05/28 11:01:11;;;;;;;4.53;2.83;;;22.80;99.90;;;;;;5073487;28;20408;-73
2023/05/28 11:03:44;;;;;;;8.00;3.10;;;23.10;99.90;;;;;;5081533;28;20494;-74
2023/05/28 11:06:11;;;;;;;7.77;3.50;;;23.00;99.90;;;;;;5074171;28;20393;-73
2023/05/28 11:08:44;;;;;;;5.30;3.23;;;23.30;99.90;;;;;;5073565;28;20889;-73
2023/05/28 11:11:14;;;;;;;4.90;2.67;;;23.30;99.90;;;;;;5073102;28;20427;-73
2023/05/28 11:13:48;;;;;;;8.43;3.90;;;23.10;99.90;;;;;;5073941;28;20427;-73
2023/05/28 11:16:18;;;;;;;3.80;2.83;;;23.00;99.90;;;;;;5089502;28;20996;-73
2023/05/28 11:19:03;;;;;;;6.13;2.77;;;22.90;99.90;;;;;;5073693;28;20786;-72
2023/05/28 11:21:29;;;;;;;3.93;2.27;;;22.90;99.90;;;;;;5087346;28;20469;-72
2023/05/28 11:24:02;;;;;;;5.90;2.47;;;23.20;99.90;;;;;;5089274;28;20809;-73
2023/05/28 11:26:28;;;;;;;3.40;2.83;;;23.40;99.90;;;;;;5073412;28;20162;-74
2023/05/28 11:28:54;;;;;;;4.10;2.00;;;23.80;99.90;;;;;;5073528;28;20407;-73
2023/05/28 11:31:20;;;;;;;4.10;1.90;;;23.90;99.90;;;;;;5072960;28;20202;-73
2023/05/28 11:33:49;;;;;;;1.80;1.60;;;24.40;99.90;;;;;;5073787;28;20420;-73
2023/05/28 11:36:15;;;;;;;3.20;1.53;;;25.00;99.90;;;;;;5072973;28;20997;-73
2023/05/28 11:38:40;;;;;;;3.23;1.70;;;25.00;99.90;;;;;;5073604;28;20452;-74
2023/05/28 11:41:06;;;;;;;1.80;1.70;;;25.00;99.90;;;;;;5072701;28;20189;-73
2023/05/28 11:43:34;;;;;;;2.03;1.67;;;24.70;99.90;;;;;;5073311;28;20181;-73
2023/05/28 11:46:01;;;;;;;2.13;1.30;;;24.50;99.90;;;;;;5073324;28;20166;-73
2023/05/28 11:48:27;;;;;;;1.70;1.60;;;24.20;99.90;;;;;;5073700;28;20754;-73
2023/05/28 11:51:02;;;;;;;4.20;1.40;;;24.30;99.90;;;;;;5071543;28;20432;-73
2023/05/28 11:53:42;;;;;;;1.80;1.47;;;24.80;99.90;;;;;;5073557;28;20426;-72
2023/05/28 11:56:11;;;;;;;2.97;1.40;;;24.30;99.90;;;;;;5073520;28;20476;-73
2023/05/28 11:58:40;;;;;;;4.07;1.90;;;22.90;99.90;;;;;;5072548;28;20491;-72
2023/05/28 12:01:06;;;;;;;1.70;1.50;;;22.00;99.90;;;;;;5072484;28;20893;-74
2023/05/28 12:03:33;;;;;;;2.33;1.47;;;21.70;99.90;;;;;;5072502;28;20443;-73
2023/05/28 12:05:59;;;;;;;2.00;1.60;;;22.80;99.90;;;;;;5071735;28;20513;-72
2023/05/28 12:08:27;;;;;;;3.27;1.50;;;23.50;99.90;;;;;;5073287;28;20397;-73
2023/05/28 12:10:58;;;;;;;2.30;1.47;;;24.70;99.90;;;;;;5072231;28;20397;-73
2023/05/28 12:13:33;;;;;;;3.43;1.30;;;25.50;99.90;;;;;;5072130;28;21010;-72
2023/05/28 12:16:14;;;;;;;3.30;2.10;;;26.30;99.90;;;;;;5073288;28;20749;-74
2023/05/28 12:18:41;;;;;;;2.53;1.70;;;26.40;99.90;;;;;;5073508;28;20434;-74
2023/05/28 12:21:12;;;;;;;1.90;1.70;;;26.00;99.90;;;;;;5072169;28;20396;-76
2023/05/28 12:23:38;;;;;;;2.30;1.40;;;25.10;99.90;;;;;;5071679;28;20452;-76
2023/05/28 12:26:09;;;;;;;4.07;1.93;;;24.90;99.90;;;;;;5073099;28;20750;-73
2023/05/28 12:28:39;;;;;;;7.17;1.77;;;25.20;99.90;;;;;;5073193;28;20303;-75
2023/05/28 12:31:05;;;;;;;2.60;1.87;;;25.60;99.90;;;;;;5072132;28;20878;-76
2023/05/28 12:33:31;;;;;;;6.50;1.80;;;25.70;99.90;;;;;;5072897;28;20435;-73
2023/05/28 12:35:59;;;;;;;4.27;1.67;;;26.30;99.90;;;;;;5073215;28;20400;-72
2023/05/28 12:38:25;;;;;;;2.10;1.90;;;26.30;99.90;;;;;;5073140;28;20286;-72
2023/05/28 12:40:51;;;;;;;2.33;2.13;;;26.20;99.90;;;;;;5071643;28;20431;-72
2023/05/28 12:43:16;;;;;;;3.20;2.03;;;25.40;99.90;;;;;;5086483;28;20194;-73
2023/05/28 12:45:42;;;;;;;2.07;1.87;;;25.40;99.90;;;;;;5073042;28;20279;-72
2023/05/28 12:48:08;;;;;;;3.50;2.17;;;24.90;99.90;;;;;;5072929;28;20155;-73
2023/05/28 12:50:34;;;;;;;3.30;2.43;;;25.00;99.90;;;;;;5072052;28;20173;-73
2023/05/28 12:53:03;;;;;;;4.43;2.40;;;24.90;99.90;;;;;;5072948;28;20428;-73